createdAt,value
2023-02-20T00:00:56.241Z,102231.41
2023-02-20T00:01:59.186Z,102234.91
2023-02-20T00:03:21.818Z,102232.25
2023-02-20T00:04:48.060Z,102231.41
2023-02-20T00:06:09.817Z,102223.56
2023-02-20T00:07:32.712Z,102222.75
2023-02-20T00:08:55.188Z,102222.91
2023-02-20T00:10:17.237Z,102227.34
2023-02-20T00:11:39.745Z,102214.25
2023-02-20T00:13:02.281Z,102211.69
2023-02-20T00:14:24.913Z,102210.81
2023-02-20T00:15:47.474Z,102209.09
2023-02-20T00:17:09.064Z,102205.69
2023-02-20T00:18:31.697Z,102210.97
2023-02-20T00:19:54.658Z,102212.69
2023-02-20T00:21:17.533Z,102210.97
2023-02-20T00:22:39.083Z,102216.25
2023-02-20T00:24:01.603Z,102215.38
2023-02-20T00:25:03.321Z,102222.44
2023-02-20T00:26:10.360Z,102211.00
2023-02-20T00:27:12.462Z,102217.16
2023-02-20T00:28:15.399Z,102211.88
2023-02-20T00:29:26.002Z,102205.69
2023-02-20T00:30:28.566Z,102205.69
2023-02-20T00:31:30.165Z,102201.31
2023-02-20T00:32:32.734Z,102206.53
2023-02-20T00:33:34.673Z,102210.97
2023-02-20T00:34:37.444Z,102210.97
2023-02-20T00:35:40.727Z,102212.69
2023-02-20T00:36:43.314Z,102209.09
2023-02-20T00:37:46.315Z,102209.09
2023-02-20T00:38:49.926Z,102203.78
2023-02-20T00:39:51.486Z,102204.63
2023-02-20T00:40:53.965Z,102198.41
2023-02-20T00:41:56.298Z,102205.41
2023-02-20T00:42:58.769Z,102202.72
2023-02-20T00:44:00.608Z,102206.22
2023-02-20T00:45:03.489Z,102203.56
2023-02-20T00:46:05.428Z,102205.22
2023-02-20T00:47:07.997Z,102209.56
2023-02-20T00:48:09.935Z,102205.13
2023-02-20T00:49:12.507Z,102199.84
2023-02-20T00:50:15.298Z,102201.56
2023-02-20T00:51:19.132Z,102196.25
2023-02-20T00:52:20.662Z,102194.50
2023-02-20T00:53:23.882Z,102192.75
2023-02-20T00:54:25.458Z,102187.47
2023-02-20T00:55:27.987Z,102183.03
2023-02-20T00:56:29.604Z,102178.66
2023-02-20T00:57:42.774Z,102181.22
2023-02-20T00:58:44.526Z,102183.88
2023-02-20T00:59:50.142Z,102181.22
2023-02-20T01:00:51.868Z,102175.94
2023-02-20T01:01:54.441Z,102174.16
2023-02-20T01:02:56.566Z,102166.25
2023-02-20T01:03:59.068Z,102167.91
2023-02-20T01:05:00.584Z,102161.78
2023-02-20T01:06:03.123Z,102168.78
2023-02-20T01:07:06.130Z,102163.50
2023-02-20T01:08:09.059Z,102166.09
2023-02-20T01:09:10.662Z,102166.09
2023-02-20T01:10:15.951Z,102163.44
2023-02-20T01:11:18.093Z,102155.53
2023-02-20T01:12:20.866Z,102161.66
2023-02-20T01:13:22.498Z,102161.66
2023-02-20T01:14:25.211Z,102155.53
2023-02-20T01:15:27.274Z,102153.75
2023-02-20T01:16:29.823Z,102148.50
2023-02-20T01:17:32.555Z,102148.50
2023-02-20T01:18:35.115Z,102150.22
2023-02-20T01:19:37.312Z,102135.31
2023-02-20T01:20:39.802Z,102143.22
2023-02-20T01:21:41.353Z,102148.50
2023-02-20T01:22:47.741Z,102136.22
2023-02-20T01:23:49.288Z,102133.59
2023-02-20T01:24:51.791Z,102136.22
2023-02-20T01:25:54.362Z,102132.78
2023-02-20T01:26:55.866Z,102134.50
2023-02-20T01:27:58.401Z,102130.22
2023-02-20T01:28:59.908Z,102129.28
2023-02-20T01:30:02.922Z,102121.34
2023-02-20T01:31:15.659Z,102119.56
2023-02-20T01:32:17.231Z,102116.00
2023-02-20T01:33:28.711Z,102116.06
2023-02-20T01:34:30.732Z,102110.78
2023-02-20T01:35:33.281Z,102115.19
2023-02-20T01:36:34.887Z,102119.66
2023-02-20T01:37:37.611Z,102124.06
2023-02-20T01:38:41.482Z,102114.44
2023-02-20T01:39:43.948Z,102106.50
2023-02-20T01:40:48.658Z,102108.28
2023-02-20T01:41:55.305Z,102103.09
2023-02-20T01:42:57.006Z,102111.78
2023-02-20T01:43:59.676Z,102111.78
2023-02-20T01:45:29.355Z,102121.44
2023-02-20T01:46:48.697Z,102128.41
2023-02-20T01:47:51.931Z,102128.50
2023-02-20T01:48:56.320Z,102126.72
2023-02-20T01:50:03.719Z,102120.50
2023-02-20T01:51:06.408Z,102122.22
2023-02-20T01:52:13.764Z,102123.94
2023-02-20T01:53:20.318Z,102130.94
2023-02-20T01:54:26.006Z,102127.38
2023-02-20T01:55:32.318Z,102132.59
2023-02-20T01:56:35.502Z,102123.81
2023-02-20T01:57:41.363Z,102121.19
2023-02-20T01:58:46.774Z,102112.34
2023-02-20T01:59:51.904Z,102113.13
2023-02-20T02:00:54.648Z,102108.75
2023-02-20T02:01:57.364Z,102118.41
2023-02-20T02:03:02.986Z,102116.63
2023-02-20T02:04:08.198Z,102109.56
2023-02-20T02:05:13.175Z,102109.56
2023-02-20T02:06:17.442Z,102109.56
2023-02-20T02:07:19.301Z,102101.63
2023-02-20T02:08:24.662Z,102107.84
2023-02-20T02:09:39.004Z,102097.28
2023-02-20T02:10:51.043Z,102097.28
2023-02-20T02:11:52.797Z,102095.53
2023-02-20T02:13:00.539Z,102090.41
2023-02-20T02:14:02.103Z,102098.38
2023-02-20T02:15:05.465Z,102096.72
2023-02-20T02:16:21.836Z,102087.09
2023-02-20T02:17:54.118Z,102088.94
2023-02-20T02:19:04.725Z,102085.53
2023-02-20T02:20:43.226Z,102080.41
2023-02-20T02:22:17.025Z,102087.41
2023-02-20T02:23:55.218Z,102076.94
2023-02-20T02:25:36.308Z,102076.13
2023-02-20T02:27:06.650Z,102083.22
2023-02-20T02:28:50.859Z,102070.13
2023-02-20T02:30:16.604Z,102066.66
2023-02-20T02:32:00.858Z,102057.06
2023-02-20T02:33:35.053Z,102057.97
2023-02-20T02:35:07.673Z,102056.25
2023-02-20T02:36:30.603Z,102056.41
2023-02-20T02:37:40.619Z,102050.25
2023-02-20T02:38:47.551Z,102046.84
2023-02-20T02:39:56.823Z,102050.34
2023-02-20T02:41:07.991Z,102050.34
2023-02-20T02:42:20.043Z,102038.06
2023-02-20T02:43:27.254Z,102041.63
2023-02-20T02:44:35.528Z,102046.84
2023-02-20T02:45:44.147Z,102039.84
2023-02-20T02:46:56.134Z,102046.06
2023-02-20T02:48:06.162Z,102032.88
2023-02-20T02:49:15.580Z,102039.06
2023-02-20T02:50:22.236Z,102040.91
2023-02-20T02:51:28.548Z,102048.00
2023-02-20T02:52:46.583Z,102046.28
2023-02-20T02:54:10.183Z,102039.25
2023-02-20T02:55:14.968Z,102044.53
2023-02-20T02:56:23.711Z,102041.13
2023-02-20T02:57:28.319Z,102040.31
2023-02-20T02:58:29.879Z,102040.31
2023-02-20T02:59:34.443Z,102046.56
2023-02-20T03:00:39.413Z,102044.84
2023-02-20T03:01:46.376Z,102045.69
2023-02-20T03:02:53.566Z,102044.84
2023-02-20T03:03:58.945Z,102049.19
2023-02-20T03:05:04.088Z,102056.25
2023-02-20T03:06:11.843Z,102051.84
2023-02-20T03:07:17.057Z,102048.25
2023-02-20T03:08:31.108Z,102051.84
2023-02-20T03:09:37.718Z,102043.06
2023-02-20T03:10:41.448Z,102034.28
2023-02-20T03:11:45.348Z,102030.78
2023-02-20T03:12:51.365Z,102036.00
2023-02-20T03:14:15.623Z,102034.28
2023-02-20T03:15:34.949Z,102039.56
2023-02-20T03:21:18.666Z,102028.13
2023-02-20T03:22:25.135Z,102029.13
2023-02-20T03:23:32.813Z,102027.41
2023-02-20T03:24:55.023Z,102016.84
2023-02-20T03:26:00.238Z,102028.28
2023-02-20T03:27:03.443Z,102011.59
2023-02-20T03:28:09.684Z,102020.34
2023-02-20T03:29:16.356Z,102015.16
2023-02-20T03:30:24.997Z,102017.72
2023-02-20T03:31:34.104Z,102015.09
2023-02-20T03:32:56.405Z,102011.59
2023-02-20T03:34:23.279Z,102006.31
2023-02-20T03:35:44.576Z,102002.75
2023-02-20T03:37:12.481Z,101995.75
2023-02-20T03:38:36.014Z,102008.09
2023-02-20T03:39:59.787Z,102006.41
2023-02-20T03:41:21.694Z,102016.94
2023-02-20T03:42:43.582Z,102014.38
2023-02-20T03:43:49.056Z,102021.38
2023-02-20T03:44:51.618Z,102016.16
2023-02-20T03:45:59.770Z,102015.31
2023-02-20T03:47:03.502Z,102010.03
2023-02-20T03:48:11.294Z,102010.03
2023-02-20T03:49:17.515Z,102004.75
2023-02-20T03:50:38.401Z,102001.16
2023-02-20T03:51:41.973Z,101998.53
2023-02-20T03:52:43.589Z,102001.25
2023-02-20T03:53:48.288Z,102004.75
2023-02-20T03:54:51.091Z,102008.31
2023-02-20T03:55:58.845Z,102002.19
2023-02-20T03:57:04.614Z,101998.63
2023-02-20T03:58:11.784Z,101995.13
2023-02-20T03:59:18.398Z,101996.03
2023-02-20T04:00:29.583Z,102000.41
2023-02-20T04:01:37.819Z,101998.69
2023-02-20T04:02:43.634Z,101996.91
2023-02-20T04:03:47.924Z,102005.72
2023-02-20T04:04:54.702Z,102004.91
2023-02-20T04:05:58.742Z,102004.03
2023-02-20T04:07:05.343Z,102003.19
2023-02-20T04:08:10.337Z,102003.22
2023-02-20T04:09:28.358Z,101997.09
2023-02-20T04:10:34.745Z,102003.31
2023-02-20T04:11:40.083Z,102005.97
2023-02-20T04:12:44.212Z,102006.88
2023-02-20T04:13:50.294Z,102001.59
2023-02-20T04:14:55.161Z,102012.16
2023-02-20T04:16:01.675Z,102000.81
2023-02-20T04:17:17.039Z,102005.16
2023-02-20T04:18:22.144Z,102002.50
2023-02-20T04:19:24.140Z,102009.59
2023-02-20T04:20:27.090Z,102008.75
2023-02-20T04:21:34.769Z,101999.06
2023-02-20T04:22:42.558Z,102004.31
2023-02-20T04:23:48.528Z,102002.50
2023-02-20T04:24:57.884Z,102000.75
2023-02-20T04:26:04.546Z,102005.09
2023-02-20T04:27:08.175Z,102001.59
2023-02-20T04:28:11.064Z,102000.69
2023-02-20T04:29:13.756Z,102000.75
2023-02-20T04:30:15.461Z,102001.59
2023-02-20T04:31:20.413Z,101999.88
2023-02-20T04:32:22.050Z,101993.78
2023-02-20T04:33:24.864Z,101991.03
2023-02-20T04:34:26.634Z,101996.31
2023-02-20T04:35:29.239Z,101991.03
2023-02-20T04:36:30.951Z,101996.31
2023-02-20T04:37:33.586Z,101991.97
2023-02-20T04:38:36.588Z,101994.59
2023-02-20T04:39:39.360Z,101989.31
2023-02-20T04:40:42.218Z,101988.50
2023-02-20T04:41:44.693Z,101991.13
2023-02-20T04:42:46.304Z,101994.59
2023-02-20T04:43:49.185Z,101995.56
2023-02-20T04:44:50.743Z,101998.19
2023-02-20T04:45:53.514Z,101995.56
2023-02-20T04:47:07.731Z,101987.63
2023-02-20T04:48:10.229Z,101992.06
2023-02-20T04:49:11.820Z,101990.31
2023-02-20T04:50:20.010Z,101996.47
2023-02-20T04:51:21.547Z,101988.56
2023-02-20T04:52:24.588Z,101989.47
2023-02-20T04:53:26.127Z,101994.75
2023-02-20T04:54:28.678Z,101994.75
2023-02-20T04:55:30.410Z,101997.38
2023-02-20T04:56:34.243Z,101993.88
2023-02-20T04:57:43.767Z,101990.41
2023-02-20T04:58:46.619Z,101991.31
2023-02-20T04:59:49.382Z,101991.31
2023-02-20T05:00:50.922Z,101985.19
2023-02-20T05:01:54.727Z,101984.34
2023-02-20T05:02:57.410Z,101986.09
2023-02-20T05:03:59.885Z,101985.19
2023-02-20T05:05:01.435Z,101986.97
2023-02-20T05:06:04.057Z,101989.59
2023-02-20T05:07:05.614Z,101986.97
2023-02-20T05:08:09.363Z,101977.38
2023-02-20T05:09:11.240Z,101979.13
2023-02-20T05:10:16.034Z,101980.91
2023-02-20T05:11:17.766Z,101984.41
2023-02-20T05:12:24.539Z,101976.56
2023-02-20T05:13:26.118Z,101970.38
2023-02-20T05:14:28.609Z,101979.19
2023-02-20T05:15:31.359Z,101972.16
2023-02-20T05:16:33.983Z,101972.09
2023-02-20T05:17:35.602Z,101980.00
2023-02-20T05:18:38.100Z,101979.19
2023-02-20T05:19:39.641Z,101980.00
2023-02-20T05:21:00.302Z,101975.66
2023-02-20T05:22:23.022Z,101981.69
2023-02-20T05:23:24.585Z,101979.91
2023-02-20T05:24:28.257Z,101984.34
2023-02-20T05:25:29.744Z,101979.06
2023-02-20T05:26:32.310Z,101973.78
2023-02-20T05:27:35.734Z,101977.22
2023-02-20T05:28:39.668Z,101983.31
2023-02-20T05:29:44.801Z,101971.94
2023-02-20T05:30:57.319Z,101976.28
2023-02-20T05:31:59.051Z,101987.63
2023-02-20T05:33:01.578Z,101987.63
2023-02-20T05:34:03.114Z,101982.34
2023-02-20T05:35:06.275Z,101984.03
2023-02-20T05:36:08.527Z,101991.03
2023-02-20T05:37:12.120Z,101989.28
2023-02-20T05:38:17.012Z,101985.72
2023-02-20T05:39:19.477Z,101986.53
2023-02-20T05:40:21.065Z,101985.63
2023-02-20T05:41:23.792Z,101987.34
2023-02-20T05:42:25.352Z,101979.34
2023-02-20T05:43:29.193Z,101986.34
2023-02-20T05:44:31.243Z,101983.66
2023-02-20T05:45:33.717Z,101984.41
2023-02-20T05:46:40.119Z,101976.34
2023-02-20T05:47:42.892Z,101976.22
2023-02-20T05:48:49.059Z,101977.00
2023-02-20T05:49:51.556Z,101976.00
2023-02-20T05:50:54.632Z,101975.94
2023-02-20T05:51:58.282Z,101982.84
2023-02-20T05:53:02.801Z,101979.22
2023-02-20T05:54:06.236Z,101988.78
2023-02-20T05:55:11.523Z,101981.72
2023-02-20T05:56:14.337Z,101974.56
2023-02-20T05:57:27.173Z,101978.94
2023-02-20T05:58:30.054Z,101977.06
2023-02-20T05:59:33.013Z,101975.22
2023-02-20T06:00:34.569Z,101969.94
2023-02-20T06:01:37.260Z,101971.63
2023-02-20T06:02:39.618Z,101975.06
2023-02-20T06:03:42.138Z,101971.47
2023-02-20T06:04:45.045Z,101973.19
2023-02-20T06:05:47.227Z,101979.25
2023-02-20T06:06:49.866Z,101975.78
2023-02-20T06:07:52.273Z,101968.69
2023-02-20T06:08:54.881Z,101969.50
2023-02-20T06:09:58.301Z,101971.22
2023-02-20T06:10:59.867Z,101965.06
2023-02-20T06:12:02.575Z,101964.97
2023-02-20T06:13:04.120Z,101964.13
2023-02-20T06:14:08.867Z,101968.50
2023-02-20T06:15:11.585Z,101978.19
2023-02-20T06:16:14.217Z,101972.03
2023-02-20T06:17:16.898Z,101978.19
2023-02-20T06:18:18.422Z,101978.19
2023-02-20T06:19:22.586Z,101973.75
2023-02-20T06:20:24.183Z,101981.63
2023-02-20T06:21:27.574Z,101977.19
2023-02-20T06:22:29.086Z,101971.91
2023-02-20T06:23:31.602Z,101975.41
2023-02-20T06:24:34.378Z,101976.19
2023-02-20T06:25:36.859Z,101969.19
2023-02-20T06:26:40.870Z,101970.91
2023-02-20T06:27:50.368Z,101970.91
2023-02-20T06:28:54.282Z,101972.69
2023-02-20T06:29:57.704Z,101977.06
2023-02-20T06:31:01.840Z,101976.19
2023-02-20T06:32:04.189Z,101983.16
2023-02-20T06:33:06.841Z,101984.13
2023-02-20T06:34:10.161Z,101989.41
2023-02-20T06:35:11.699Z,101991.19
2023-02-20T06:36:21.406Z,101990.25
2023-02-20T06:37:24.090Z,101997.31
2023-02-20T06:38:26.430Z,101999.16
2023-02-20T06:39:28.895Z,102004.53
2023-02-20T06:40:30.454Z,102002.81
2023-02-20T06:41:33.022Z,101995.81
2023-02-20T06:42:35.997Z,102007.31
2023-02-20T06:43:38.977Z,102001.19
2023-02-20T06:44:40.533Z,102007.38
2023-02-20T06:45:44.717Z,102006.47
2023-02-20T06:46:46.419Z,102007.38
2023-02-20T06:47:48.936Z,102005.66
2023-02-20T06:48:52.267Z,102001.25
2023-02-20T06:49:54.765Z,102003.88
2023-02-20T06:50:57.191Z,102006.53
2023-02-20T06:51:59.776Z,102008.28
2023-02-20T06:53:01.558Z,102010.16
2023-02-20T06:54:05.054Z,102003.97
2023-02-20T06:55:06.811Z,102010.16
2023-02-20T06:56:11.403Z,102009.41
2023-02-20T06:57:13.181Z,102006.75
2023-02-20T06:58:15.746Z,102012.03
2023-02-20T06:59:18.246Z,102009.41
2023-02-20T07:00:20.385Z,102006.75
2023-02-20T07:01:28.663Z,102013.72
2023-02-20T07:02:30.222Z,102008.44
2023-02-20T07:03:32.709Z,102010.16
2023-02-20T07:04:34.266Z,102013.66
2023-02-20T07:05:36.928Z,102011.03
2023-02-20T07:06:38.722Z,102011.88
2023-02-20T07:07:41.354Z,102015.44
2023-02-20T07:08:46.537Z,102017.31
2023-02-20T07:09:49.124Z,102017.31
2023-02-20T07:10:50.685Z,102017.31
2023-02-20T07:11:55.297Z,102022.59
2023-02-20T07:12:57.187Z,102024.28
2023-02-20T07:13:59.762Z,102016.38
2023-02-20T07:15:02.467Z,102018.09
2023-02-20T07:16:05.380Z,102020.81
2023-02-20T07:17:08.283Z,102019.88
2023-02-20T07:18:10.843Z,102024.28
2023-02-20T07:19:12.528Z,102024.28
2023-02-20T07:20:15.906Z,102022.50
2023-02-20T07:21:17.830Z,102031.28
2023-02-20T07:22:22.538Z,102020.72
2023-02-20T07:23:24.133Z,102025.94
2023-02-20T07:24:26.970Z,102022.44
2023-02-20T07:25:28.587Z,102026.00
2023-02-20T07:26:31.656Z,102024.13
2023-02-20T07:27:42.234Z,102020.59
2023-02-20T07:28:44.737Z,102024.94
2023-02-20T07:29:48.800Z,102021.38
2023-02-20T07:30:50.494Z,102024.03
2023-02-20T07:31:53.223Z,102024.84
2023-02-20T07:32:56.168Z,102026.66
2023-02-20T07:33:58.788Z,102020.44
2023-02-20T07:35:05.085Z,102016.88
2023-02-20T07:36:09.124Z,102016.00
2023-02-20T07:37:10.662Z,102024.78
2023-02-20T07:38:13.790Z,102017.72
2023-02-20T07:39:15.399Z,102011.59
2023-02-20T07:40:17.967Z,102013.31
2023-02-20T07:41:19.643Z,102010.59
2023-02-20T07:42:22.366Z,102019.31
2023-02-20T07:43:23.857Z,102023.59
2023-02-20T07:44:26.366Z,102024.44
2023-02-20T07:45:36.363Z,102014.69
2023-02-20T07:46:48.945Z,102018.97
2023-02-20T07:47:50.472Z,102025.09
2023-02-20T07:48:54.486Z,102023.31
2023-02-20T07:49:56.023Z,102023.16
2023-02-20T07:50:58.565Z,102015.19
2023-02-20T07:52:00.233Z,102019.47
2023-02-20T07:53:02.736Z,102015.88
2023-02-20T07:54:05.667Z,102012.31
2023-02-20T07:55:07.714Z,102015.75
2023-02-20T07:56:20.872Z,102011.22
2023-02-20T07:57:22.577Z,102019.94
2023-02-20T07:58:25.837Z,102017.28
2023-02-20T07:59:27.436Z,102019.00
2023-02-20T08:00:29.966Z,102025.16
2023-02-20T08:01:39.673Z,102020.56
2023-02-20T08:02:41.237Z,102017.94
2023-02-20T08:03:47.586Z,102024.09
2023-02-20T08:04:50.803Z,102016.97
2023-02-20T08:05:54.334Z,102013.41
2023-02-20T08:06:58.755Z,102018.69
2023-02-20T08:08:01.294Z,102020.44
2023-02-20T08:09:04.316Z,102019.50
2023-02-20T08:10:07.351Z,102027.44
2023-02-20T08:11:10.321Z,102018.56
2023-02-20T08:12:20.143Z,102025.56
2023-02-20T08:13:21.881Z,102020.28
2023-02-20T08:14:25.075Z,102022.00
2023-02-20T08:15:27.700Z,102029.81
2023-02-20T08:16:30.300Z,102027.13
2023-02-20T08:17:46.012Z,102028.81
2023-02-20T08:18:49.451Z,102024.34
2023-02-20T08:19:53.665Z,102017.31
2023-02-20T08:21:06.438Z,102021.69
2023-02-20T08:22:09.719Z,102022.47
2023-02-20T08:23:17.732Z,102006.59
2023-02-20T08:24:20.599Z,102008.16
2023-02-20T08:25:22.193Z,102019.50
2023-02-20T08:26:25.669Z,102013.22
2023-02-20T08:27:27.612Z,102007.78
2023-02-20T08:28:30.108Z,102012.06
2023-02-20T08:29:31.907Z,102009.31
2023-02-20T08:30:34.463Z,102018.06
2023-02-20T08:31:36.149Z,102008.34
2023-02-20T08:32:38.921Z,102010.03
2023-02-20T08:33:41.550Z,102007.31
2023-02-20T08:34:43.273Z,102019.59
2023-02-20T08:35:48.348Z,102015.16
2023-02-20T08:37:00.845Z,102015.09
2023-02-20T08:38:03.653Z,102006.31
2023-02-20T08:39:06.238Z,102012.47
2023-02-20T08:40:09.465Z,102011.44
2023-02-20T08:41:13.386Z,102004.38
2023-02-20T08:42:15.824Z,102002.44
2023-02-20T08:43:18.583Z,102004.91
2023-02-20T08:44:20.187Z,102005.69
2023-02-20T08:45:23.620Z,102003.84
2023-02-20T08:46:26.277Z,101996.66
2023-02-20T08:47:27.803Z,101995.75
2023-02-20T08:48:30.338Z,101996.50
2023-02-20T08:49:31.857Z,101998.13
2023-02-20T08:50:34.378Z,101996.34
2023-02-20T08:51:38.494Z,101990.91
2023-02-20T08:52:42.503Z,101998.75
2023-02-20T08:56:56.481Z,102012.69
2023-02-20T08:57:58.992Z,102004.91
2023-02-20T08:59:01.466Z,102011.19
2023-02-20T09:00:05.679Z,102005.06
2023-02-20T09:01:11.002Z,102002.44
2023-02-20T09:02:17.284Z,102004.13
2023-02-20T09:03:20.032Z,102002.34
2023-02-20T09:04:23.564Z,101992.63
2023-02-20T09:05:26.072Z,101998.66
2023-02-20T09:06:29.038Z,101999.38
2023-02-20T09:07:33.837Z,101993.91
2023-02-20T09:08:36.311Z,101997.25
2023-02-20T09:09:38.402Z,101997.09
2023-02-20T09:10:41.201Z,102000.44
2023-02-20T09:11:43.827Z,101995.94
2023-02-20T09:12:46.911Z,101999.50
2023-02-20T09:13:50.317Z,101999.50
2023-02-20T09:14:52.892Z,102005.50
2023-02-20T09:15:54.682Z,102005.50
2023-02-20T09:16:57.168Z,102003.63
2023-02-20T09:17:58.711Z,101997.47
2023-02-20T09:19:01.201Z,102005.41
2023-02-20T09:20:02.754Z,102003.56
2023-02-20T09:21:05.420Z,102004.31
2023-02-20T09:22:06.960Z,102005.16
2023-02-20T09:23:10.850Z,102002.38
2023-02-20T09:24:12.518Z,101995.28
2023-02-20T09:25:15.700Z,101994.41
2023-02-20T09:26:17.265Z,101994.41
2023-02-20T09:27:19.897Z,101995.28
2023-02-20T09:28:22.514Z,101992.53
2023-02-20T09:29:24.305Z,102001.28
2023-02-20T09:30:27.067Z,101996.75
2023-02-20T09:31:28.791Z,102001.09
2023-02-20T09:32:31.426Z,102005.47
2023-02-20T09:33:34.015Z,102005.38
2023-02-20T09:34:37.080Z,102000.00
2023-02-20T09:35:38.623Z,102008.72
2023-02-20T09:36:41.187Z,102009.47
2023-02-20T09:37:43.781Z,102013.84
2023-02-20T09:38:47.634Z,102007.63
2023-02-20T09:39:49.161Z,102017.28
2023-02-20T09:40:55.408Z,102012.81
2023-02-20T09:42:08.846Z,102015.47
2023-02-20T09:43:21.884Z,102008.31
2023-02-20T09:44:31.807Z,102010.84
2023-02-20T09:45:35.299Z,102011.66
2023-02-20T09:46:38.345Z,102017.72
2023-02-20T09:47:49.931Z,102016.84
2023-02-20T09:49:05.321Z,102023.75
2023-02-20T09:50:15.958Z,102018.41
2023-02-20T09:51:22.127Z,102018.22
2023-02-20T09:52:26.027Z,102021.75
2023-02-20T09:53:33.671Z,102022.66
2023-02-20T09:54:51.306Z,102018.34
2023-02-20T09:55:54.389Z,102024.63
2023-02-20T09:57:00.068Z,102017.63
2023-02-20T09:58:05.244Z,102012.41
2023-02-20T09:59:14.388Z,102010.69
2023-02-20T10:00:26.557Z,102009.75
2023-02-20T10:01:30.445Z,102016.84
2023-02-20T10:02:38.696Z,102015.97
2023-02-20T10:03:53.204Z,102015.81
2023-02-20T10:05:02.512Z,102014.13
2023-02-20T10:06:13.983Z,102018.47
2023-02-20T10:07:24.176Z,102020.13
2023-02-20T10:08:25.890Z,102020.13
2023-02-20T10:09:29.157Z,102017.53
2023-02-20T10:10:38.799Z,102015.75
2023-02-20T10:11:58.843Z,102015.81
2023-02-20T10:13:15.770Z,102007.88
2023-02-20T10:14:46.855Z,102008.66
2023-02-20T10:15:59.623Z,102011.22
2023-02-20T10:17:11.370Z,102012.00
2023-02-20T10:18:24.206Z,102016.22
2023-02-20T10:19:35.847Z,102010.81
2023-02-20T10:20:48.087Z,102009.03
2023-02-20T10:22:06.093Z,102013.47
2023-02-20T10:23:19.195Z,102012.53
2023-02-20T10:24:38.133Z,102008.00
2023-02-20T10:25:45.748Z,102010.47
2023-02-20T10:26:53.589Z,102003.31
2023-02-20T10:28:04.117Z,102007.47
2023-02-20T10:29:16.028Z,102002.00
2023-02-20T10:30:25.095Z,101994.84
2023-02-20T10:31:38.624Z,101996.41
2023-02-20T10:32:47.239Z,102003.25
2023-02-20T10:33:52.829Z,101999.59
2023-02-20T10:34:59.493Z,101996.84
2023-02-20T10:36:10.654Z,102003.75
2023-02-20T10:37:15.534Z,102004.63
2023-02-20T10:38:24.072Z,102002.84
2023-02-20T10:39:26.136Z,102004.63
2023-02-20T10:40:37.266Z,102003.59
2023-02-20T10:41:51.104Z,102006.16
2023-02-20T10:43:01.603Z,102002.59
2023-02-20T10:44:12.306Z,101995.41
2023-02-20T10:45:20.132Z,101997.09
2023-02-20T10:46:39.843Z,102007.53
2023-02-20T10:47:50.428Z,101995.03
2023-02-20T10:48:58.126Z,102001.19
2023-02-20T10:50:05.610Z,101988.81
2023-02-20T10:51:11.689Z,101998.47
2023-02-20T10:52:32.634Z,101996.59
2023-02-20T10:53:44.822Z,101992.03
2023-02-20T10:54:51.242Z,101999.06
2023-02-20T10:55:59.598Z,101985.81
2023-02-20T10:57:20.088Z,101994.50
2023-02-20T10:58:28.045Z,101990.19
2023-02-20T10:59:39.040Z,101981.25
2023-02-20T11:00:46.240Z,101983.09
2023-02-20T11:01:52.411Z,101990.94
2023-02-20T11:02:58.614Z,101987.34
2023-02-20T11:04:05.859Z,101989.13
2023-02-20T11:05:12.438Z,101983.72
2023-02-20T11:06:18.021Z,101981.88
2023-02-20T11:07:22.223Z,101976.56
2023-02-20T11:08:24.833Z,101970.34
2023-02-20T11:09:27.853Z,101974.66
2023-02-20T11:10:30.646Z,101968.44
2023-02-20T11:11:36.494Z,101967.50
2023-02-20T11:12:43.696Z,101957.72
2023-02-20T11:13:45.277Z,101962.03
2023-02-20T11:14:48.003Z,101953.03
2023-02-20T11:15:53.023Z,101944.03
2023-02-20T11:16:59.643Z,101936.69
2023-02-20T11:18:01.323Z,101944.47
2023-02-20T11:19:09.954Z,101943.31
2023-02-20T11:20:46.008Z,101932.69
2023-02-20T11:21:51.014Z,101936.88
2023-02-20T11:22:52.672Z,101936.81
2023-02-20T11:23:56.898Z,101941.94
2023-02-20T11:25:15.948Z,101935.59
2023-02-20T11:26:30.536Z,101935.59
2023-02-20T11:27:35.001Z,101941.75
2023-02-20T11:28:39.187Z,101947.97
2023-02-20T11:29:48.175Z,101946.94
2023-02-20T11:31:00.494Z,101934.53
2023-02-20T11:32:24.261Z,101945.16
2023-02-20T11:33:30.439Z,101946.13
2023-02-20T11:34:32.873Z,101955.09
2023-02-20T11:35:38.369Z,101952.63
2023-02-20T11:36:46.529Z,101943.91
2023-02-20T11:37:55.694Z,101954.50
2023-02-20T11:39:00.057Z,101955.25
2023-02-20T11:40:01.988Z,101952.63
2023-02-20T11:41:20.752Z,101949.97
2023-02-20T11:42:23.635Z,101946.56
2023-02-20T11:43:27.902Z,101954.41
2023-02-20T11:44:31.829Z,101946.38
2023-02-20T11:45:33.863Z,101928.66
2023-02-20T11:46:36.474Z,101933.88
2023-02-20T11:47:39.316Z,101928.56
2023-02-20T11:48:59.958Z,101925.16
2023-02-20T11:50:19.664Z,101934.06
2023-02-20T11:51:32.346Z,101920.22
2023-02-20T11:52:35.555Z,101934.41
2023-02-20T11:53:38.074Z,101934.41
2023-02-20T11:54:39.732Z,101925.34
2023-02-20T11:55:44.382Z,101923.44
2023-02-20T11:56:59.466Z,101929.59
2023-02-20T11:58:03.604Z,101923.38
2023-02-20T11:59:28.416Z,101926.88
2023-02-20T12:00:47.093Z,101932.19
2023-02-20T12:02:00.295Z,101933.13
2023-02-20T12:03:13.210Z,101927.25
2023-02-20T12:04:22.514Z,101923.13
2023-02-20T12:05:39.890Z,101929.47
2023-02-20T12:06:43.108Z,101920.78
2023-02-20T12:07:46.810Z,101920.78
2023-02-20T12:08:55.052Z,101919.91
2023-02-20T12:10:02.825Z,101923.44
2023-02-20T12:11:09.096Z,101922.75
2023-02-20T12:12:14.062Z,101917.47
2023-02-20T12:13:18.527Z,101913.94
2023-02-20T12:14:21.442Z,101910.34
2023-02-20T12:15:25.665Z,101902.28
2023-02-20T12:16:38.611Z,101906.94
2023-02-20T12:17:51.182Z,101913.34
2023-02-20T12:19:02.749Z,101910.88
2023-02-20T12:20:12.045Z,101915.31
2023-02-20T12:21:23.943Z,101922.34
2023-02-20T12:22:34.492Z,101914.38
2023-02-20T12:23:43.095Z,101916.09
2023-02-20T12:25:00.165Z,101906.44
2023-02-20T12:26:16.916Z,101905.69
2023-02-20T12:27:40.234Z,101905.00
2023-02-20T12:28:54.364Z,101909.44
2023-02-20T12:30:04.102Z,101909.63
2023-02-20T12:31:18.512Z,101930.09
2023-02-20T12:32:33.179Z,101928.38
2023-02-20T12:33:54.349Z,101925.78
2023-02-20T12:35:14.816Z,101921.44
2023-02-20T12:36:29.385Z,101915.38
2023-02-20T12:37:42.490Z,101901.19
2023-02-20T12:38:49.375Z,101898.72
2023-02-20T12:40:03.841Z,101901.38
2023-02-20T12:41:23.061Z,101902.22
2023-02-20T12:42:33.153Z,101910.25
2023-02-20T12:43:46.141Z,101906.00
2023-02-20T12:45:15.938Z,101898.13
2023-02-20T12:46:24.512Z,101910.59
2023-02-20T12:47:32.378Z,101907.88
2023-02-20T12:48:44.257Z,101906.06
2023-02-20T12:50:07.330Z,101903.41
2023-02-20T12:51:19.832Z,101905.13